Oak Island, NC

9:32 PM EDT on September 20, 2014 (GMT -0400)
Oak Island - Marsh Hen | Change Station
CLOSE
Current Station
Personal Weather Station
Location: Oak Island, NC
Elevation: 3 ft
Nearby Weather Stations

Elev 3 ft 33.91 °N, 78.14 °W | Updated 1 minute ago

Rain
Rain
71.4 °F
Feels Like 71.4 °F
N
4.0
Wind Variable Wind from SW
Gusts 6.0 mph

Today
High -- | Low -- °F
--% Chance of Precip.
Yesterday
High -- | Low -- °F
Precip. -- in
6:59 AM 7:12 PM
Waning Crescent, 9% visible
Pressure 29.92 in
Visibility 10.0 miles
Clouds Scattered Clouds 1300 ft
Dew Point 70 °F
Humidity 94%
Rainfall 0.02 in
Snow Depth Not available.
UV 0 out of 12
Pollen 7.00 out of 12
Air Quality Not available.
Flu Activity Not available.
METAR KSUT 210115Z AUTO 01010KT 10SM SCT013 21/20 A2992 RMK AO2 T02110200

More Conditions Fewer Conditions

Pressure 29.92 in
Visibility 10.0 miles
Clouds Scattered Clouds 1300 ft
Dew Point 70 °F
Humidity 94%
Rainfall 0.02 in
Snow Depth Not available.
UV 0 out of 12
Pollen 7.00 out of 12
Air Quality Not available.
Flu Activity Not available.
METAR KSUT 210115Z AUTO 01010KT 10SM SCT013 21/20 A2992 RMK AO2 T02110200

More Conditions Fewer Conditions

10-Day Weather Forecast

Almanac

Astronomy

Sep. 20, 2014 Rise Set
Actual Time 6:59 AM EDT 7:12 PM EDT
Civil Twilight 6:34 AM EDT 7:36 PM EDT
Nautical Twilight 6:05 AM EDT 8:06 PM EDT
Astronomical Twilight 5:35 AM EDT 8:35 PM EDT
Moon 3:44 AM EDT (9/20) 5:08 PM EDT (9/20)
Length of Visible Light 13h 02m
Length of Day
12h 12m
Tomorrow will be 2m 5s shorter.
Waning Crescent, 9% of the Moon is Illuminated
Today
Waning Crescent
Sep 24
New
Oct 1
First Quarter
Oct 8
Full
Oct 15
Last Quarter

Today's Extremes

State Highs State Lows

Community

WunderPhotos

Upload Photos

1,755,032 photos uploaded!

WunderBlogs® & News

Nearby

Snow Depth

Station Depth Elevation
No new snow has been reported.

Earthquake Activity

City Distance Mag. Time & Date
No recent earthquake activity has been reported nearby.
Minimum magnitude displayed is 2.5.

Coastal Water Temperatures

Place Temperature
Johnny Mercer Pier, Wrightsville Beach, NC 80.1 °F
Springmaid Pier, SC 79.0 °F

Nearby Weather Stations